sensor_id;sensor_type;location;lat;lon;timestamp;pressure;altitude;pressure_sealevel;temperature;humidity
59787;BME280;45672;51.612;5.536;2023-06-24T00:00:56;102232.38;;;21.16;76.29
59787;BME280;45672;51.612;5.536;2023-06-24T00:03:22;102226.41;;;21.21;76.27
59787;BME280;45672;51.612;5.536;2023-06-24T00:05:47;102223.03;;;21.19;76.20
59787;BME280;45672;51.612;5.536;2023-06-24T00:08:18;102229.22;;;21.13;76.70
59787;BME280;45672;51.612;5.536;2023-06-24T00:10:47;102215.56;;;20.99;77.56
59787;BME280;45672;51.612;5.536;2023-06-24T00:13:13;102240.72;;;21.00;78.12
59787;BME280;45672;51.612;5.536;2023-06-24T00:15:39;102240.09;;;20.98;77.58
59787;BME280;45672;51.612;5.536;2023-06-24T00:18:11;102246.25;;;20.92;79.33
59787;BME280;45672;51.612;5.536;2023-06-24T00:20:37;102238.53;;;20.89;80.50
59787;BME280;45672;51.612;5.536;2023-06-24T00:23:02;102250.75;;;20.84;80.59
59787;BME280;45672;51.612;5.536;2023-06-24T00:25:28;102245.72;;;20.81;80.85
59787;BME280;45672;51.612;5.536;2023-06-24T00:27:54;102252.81;;;20.82;80.92
59787;BME280;45672;51.612;5.536;2023-06-24T00:30:19;102239.00;;;20.77;81.27
59787;BME280;45672;51.612;5.536;2023-06-24T00:32:44;102245.44;;;20.76;81.69
59787;BME280;45672;51.612;5.536;2023-06-24T00:35:10;102243.38;;;20.63;82.56
59787;BME280;45672;51.612;5.536;2023-06-24T00:37:38;102249.91;;;20.69;82.77
59787;BME280;45672;51.612;5.536;2023-06-24T00:40:05;102250.09;;;20.67;82.46
59787;BME280;45672;51.612;5.536;2023-06-24T00:42:31;102255.31;;;20.69;82.70
59787;BME280;45672;51.612;5.536;2023-06-24T00:44:56;102247.13;;;20.62;83.10
59787;BME280;45672;51.612;5.536;2023-06-24T00:47:22;102255.69;;;20.66;83.03
59787;BME280;45672;51.612;5.536;2023-06-24T00:49:47;102253.81;;;20.66;82.60
59787;BME280;45672;51.612;5.536;2023-06-24T00:52:13;102267.50;;;20.65;83.01
59787;BME280;45672;51.612;5.536;2023-06-24T00:54:44;102268.91;;;20.61;83.37
59787;BME280;45672;51.612;5.536;2023-06-24T00:57:09;102269.47;;;20.56;83.49
59787;BME280;45672;51.612;5.536;2023-06-24T00:59:36;102254.00;;;20.50;83.68
59787;BME280;45672;51.612;5.536;2023-06-24T01:02:02;102247.38;;;20.38;82.79
59787;BME280;45672;51.612;5.536;2023-06-24T01:04:30;102245.44;;;20.31;82.44
59787;BME280;45672;51.612;5.536;2023-06-24T01:06:57;102241.63;;;20.26;79.88
59787;BME280;45672;51.612;5.536;2023-06-24T01:09:23;102247.00;;;20.26;79.99
59787;BME280;45672;51.612;5.536;2023-06-24T01:11:48;102250.44;;;20.20;78.71
59787;BME280;45672;51.612;5.536;2023-06-24T01:14:14;102243.00;;;20.22;78.41
59787;BME280;45672;51.612;5.536;2023-06-24T01:19:32;102238.03;;;20.10;82.86
59787;BME280;45672;51.612;5.536;2023-06-24T01:25:08;102237.09;;;20.03;81.39
59787;BME280;45672;51.612;5.536;2023-06-24T01:28:18;102234.09;;;19.98;81.49
59787;BME280;45672;51.612;5.536;2023-06-24T01:33:15;102231.97;;;19.93;81.66
59787;BME280;45672;51.612;5.536;2023-06-24T01:35:45;102232.97;;;19.92;80.87
59787;BME280;45672;51.612;5.536;2023-06-24T01:38:22;102235.88;;;19.91;80.51
59787;BME280;45672;51.612;5.536;2023-06-24T01:40:50;102237.06;;;19.88;81.52
59787;BME280;45672;51.612;5.536;2023-06-24T01:43:17;102231.22;;;19.85;80.31
59787;BME280;45672;51.612;5.536;2023-06-24T01:45:45;102229.19;;;19.78;80.48
59787;BME280;45672;51.612;5.536;2023-06-24T01:48:19;102228.91;;;19.73;80.39
59787;BME280;45672;51.612;5.536;2023-06-24T01:51:10;102223.88;;;19.70;80.20
59787;BME280;45672;51.612;5.536;2023-06-24T01:53:39;102224.13;;;19.60;79.80
59787;BME280;45672;51.612;5.536;2023-06-24T01:56:09;102211.25;;;19.48;80.01
59787;BME280;45672;51.612;5.536;2023-06-24T01:58:36;102221.00;;;19.49;80.38
59787;BME280;45672;51.612;5.536;2023-06-24T02:01:03;102223.69;;;19.49;79.72
59787;BME280;45672;51.612;5.536;2023-06-24T02:03:31;102227.44;;;19.48;77.80
59787;BME280;45672;51.612;5.536;2023-06-24T02:05:57;102215.78;;;19.47;77.43
59787;BME280;45672;51.612;5.536;2023-06-24T02:08:24;102213.94;;;19.48;76.76
59787;BME280;45672;51.612;5.536;2023-06-24T02:10:51;102217.00;;;19.44;75.13
59787;BME280;45672;51.612;5.536;2023-06-24T02:13:17;102212.44;;;19.45;72.45
59787;BME280;45672;51.612;5.536;2023-06-24T02:15:45;102213.31;;;19.37;71.91
59787;BME280;45672;51.612;5.536;2023-06-24T02:18:13;102213.16;;;19.39;72.11
59787;BME280;45672;51.612;5.536;2023-06-24T02:20:41;102212.03;;;19.33;70.67
59787;BME280;45672;51.612;5.536;2023-06-24T02:23:08;102219.75;;;19.36;71.62
59787;BME280;45672;51.612;5.536;2023-06-24T02:25:35;102221.97;;;19.33;70.96
59787;BME280;45672;51.612;5.536;2023-06-24T02:28:04;102214.41;;;19.28;70.42
59787;BME280;45672;51.612;5.536;2023-06-24T02:30:30;102221.31;;;19.31;69.78
59787;BME280;45672;51.612;5.536;2023-06-24T02:32:56;102220.63;;;19.28;74.40
59787;BME280;45672;51.612;5.536;2023-06-24T02:35:22;102217.47;;;19.25;73.42
59787;BME280;45672;51.612;5.536;2023-06-24T02:37:47;102218.66;;;19.22;74.32
59787;BME280;45672;51.612;5.536;2023-06-24T02:40:13;102208.78;;;19.15;74.32
59787;BME280;45672;51.612;5.536;2023-06-24T02:42:38;102211.81;;;19.11;72.64
59787;BME280;45672;51.612;5.536;2023-06-24T02:45:04;102209.47;;;19.08;71.99
59787;BME280;45672;51.612;5.536;2023-06-24T02:47:31;102217.94;;;19.05;72.84
59787;BME280;45672;51.612;5.536;2023-06-24T02:49:57;102214.59;;;19.03;73.32
59787;BME280;45672;51.612;5.536;2023-06-24T02:52:23;102211.38;;;19.00;73.06
59787;BME280;45672;51.612;5.536;2023-06-24T02:54:49;102205.84;;;18.93;73.44
59787;BME280;45672;51.612;5.536;2023-06-24T02:57:15;102219.84;;;18.97;73.13
59787;BME280;45672;51.612;5.536;2023-06-24T02:59:41;102220.38;;;18.92;73.38
59787;BME280;45672;51.612;5.536;2023-06-24T03:02:06;102223.72;;;18.86;73.71
59787;BME280;45672;51.612;5.536;2023-06-24T03:04:32;102223.06;;;18.84;74.23
59787;BME280;45672;51.612;5.536;2023-06-24T03:06:59;102232.34;;;18.81;74.62
59787;BME280;45672;51.612;5.536;2023-06-24T03:09:26;102222.09;;;18.76;73.62
59787;BME280;45672;51.612;5.536;2023-06-24T03:11:52;102228.00;;;18.72;74.67
59787;BME280;45672;51.612;5.536;2023-06-24T03:14:18;102220.44;;;18.67;76.26
59787;BME280;45672;51.612;5.536;2023-06-24T03:16:44;102221.63;;;18.65;75.83
59787;BME280;45672;51.612;5.536;2023-06-24T03:19:09;102229.88;;;18.63;75.66
59787;BME280;45672;51.612;5.536;2023-06-24T03:21:35;102238.34;;;18.60;75.49
59787;BME280;45672;51.612;5.536;2023-06-24T03:24:00;102232.28;;;18.58;77.17
59787;BME280;45672;51.612;5.536;2023-06-24T03:26:32;102227.72;;;18.58;78.33
59787;BME280;45672;51.612;5.536;2023-06-24T03:28:58;102221.63;;;18.65;75.09
59787;BME280;45672;51.612;5.536;2023-06-24T03:31:23;102209.06;;;18.49;77.27
59787;BME280;45672;51.612;5.536;2023-06-24T03:33:49;102211.94;;;18.47;76.94
59787;BME280;45672;51.612;5.536;2023-06-24T03:36:14;102220.03;;;18.39;77.59
59787;BME280;45672;51.612;5.536;2023-06-24T03:38:39;102221.06;;;18.38;78.16
59787;BME280;45672;51.612;5.536;2023-06-24T03:41:05;102224.25;;;18.33;79.07
59787;BME280;45672;51.612;5.536;2023-06-24T03:43:31;102215.19;;;18.26;78.29
59787;BME280;45672;51.612;5.536;2023-06-24T03:45:56;102223.44;;;18.24;78.89
59787;BME280;45672;51.612;5.536;2023-06-24T03:48:22;102227.84;;;18.25;79.19
59787;BME280;45672;51.612;5.536;2023-06-24T03:50:47;102229.53;;;18.26;80.74
59787;BME280;45672;51.612;5.536;2023-06-24T03:53:13;102228.00;;;18.24;81.37
59787;BME280;45672;51.612;5.536;2023-06-24T03:55:38;102228.00;;;18.24;80.58
59787;BME280;45672;51.612;5.536;2023-06-24T03:58:03;102237.59;;;18.26;80.74
59787;BME280;45672;51.612;5.536;2023-06-24T04:00:29;102238.78;;;18.24;80.31
59787;BME280;45672;51.612;5.536;2023-06-24T04:02:54;102238.09;;;18.22;81.02
59787;BME280;45672;51.612;5.536;2023-06-24T04:05:20;102239.13;;;18.21;81.04
59787;BME280;45672;51.612;5.536;2023-06-24T04:07:47;102234.06;;;18.18;81.29
59787;BME280;45672;51.612;5.536;2023-06-24T04:10:12;102241.50;;;18.16;81.09
59787;BME280;45672;51.612;5.536;2023-06-24T04:12:38;102241.66;;;18.14;81.83
59787;BME280;45672;51.612;5.536;2023-06-24T04:15:04;102235.09;;;18.17;81.94
59787;BME280;45672;51.612;5.536;2023-06-24T04:17:30;102235.09;;;18.17;81.81
59787;BME280;45672;51.612;5.536;2023-06-24T04:19:59;102235.94;;;18.17;81.78
59787;BME280;45672;51.612;5.536;2023-06-24T04:22:25;102243.50;;;18.22;81.88
59787;BME280;45672;51.612;5.536;2023-06-24T04:24:50;102240.78;;;18.22;83.46
59787;BME280;45672;51.612;5.536;2023-06-24T04:27:15;102237.78;;;18.25;82.90
59787;BME280;45672;51.612;5.536;2023-06-24T04:29:41;102249.69;;;18.31;83.33
59787;BME280;45672;51.612;5.536;2023-06-24T04:32:06;102244.66;;;18.36;83.37
59787;BME280;45672;51.612;5.536;2023-06-24T04:34:32;102232.34;;;18.33;83.51
59787;BME280;45672;51.612;5.536;2023-06-24T04:36:57;102228.81;;;18.33;83.61
59787;BME280;45672;51.612;5.536;2023-06-24T04:39:23;102237.06;;;18.39;83.82
59787;BME280;45672;51.612;5.536;2023-06-24T04:41:48;102234.69;;;18.44;84.30
59787;BME280;45672;51.612;5.536;2023-06-24T04:44:13;102240.94;;;18.45;84.53
59787;BME280;45672;51.612;5.536;2023-06-24T04:46:39;102239.41;;;18.51;84.08
59787;BME280;45672;51.612;5.536;2023-06-24T04:49:06;102247.44;;;18.59;84.97
59787;BME280;45672;51.612;5.536;2023-06-24T04:51:31;102245.06;;;18.64;84.48
59787;BME280;45672;51.612;5.536;2023-06-24T04:53:57;102242.88;;;18.68;82.86
59787;BME280;45672;51.612;5.536;2023-06-24T04:56:23;102242.50;;;18.71;82.96
59787;BME280;45672;51.612;5.536;2023-06-24T04:58:48;102248.34;;;18.83;81.74
59787;BME280;45672;51.612;5.536;2023-06-24T05:01:13;102245.66;;;18.91;80.98
59787;BME280;45672;51.612;5.536;2023-06-24T05:03:39;102240.72;;;18.94;80.09
59787;BME280;45672;51.612;5.536;2023-06-24T05:06:04;102247.09;;;19.02;79.32
59787;BME280;45672;51.612;5.536;2023-06-24T05:08:29;102245.72;;;19.06;76.97
59787;BME280;45672;51.612;5.536;2023-06-24T05:10:55;102242.19;;;19.05;77.54
59787;BME280;45672;51.612;5.536;2023-06-24T05:13:20;102245.88;;;19.12;77.98
59787;BME280;45672;51.612;5.536;2023-06-24T05:15:45;102238.94;;;19.18;77.29
59787;BME280;45672;51.612;5.536;2023-06-24T05:18:10;102242.44;;;19.19;77.73
59787;BME280;45672;51.612;5.536;2023-06-24T05:20:36;102240.75;;;19.26;77.59
59787;BME280;45672;51.612;5.536;2023-06-24T05:23:01;102244.94;;;19.28;77.83
59787;BME280;45672;51.612;5.536;2023-06-24T05:25:26;102241.53;;;19.35;77.69
59787;BME280;45672;51.612;5.536;2023-06-24T05:27:52;102243.31;;;19.42;78.02
59787;BME280;45672;51.612;5.536;2023-06-24T05:30:17;102245.19;;;19.42;77.36
59787;BME280;45672;51.612;5.536;2023-06-24T05:32:42;102247.72;;;19.43;77.75
59787;BME280;45672;51.612;5.536;2023-06-24T05:35:08;102248.00;;;19.49;77.65
59787;BME280;45672;51.612;5.536;2023-06-24T05:37:33;102248.97;;;19.56;76.34
59787;BME280;45672;51.612;5.536;2023-06-24T05:39:59;102258.84;;;19.63;76.71
59787;BME280;45672;51.612;5.536;2023-06-24T05:42:26;102258.13;;;19.70;76.27
59787;BME280;45672;51.612;5.536;2023-06-24T05:44:52;102250.50;;;19.73;76.47
59787;BME280;45672;51.612;5.536;2023-06-24T05:47:17;102251.69;;;19.79;75.01
59787;BME280;45672;51.612;5.536;2023-06-24T05:49:43;102247.25;;;19.78;75.01
59787;BME280;45672;51.612;5.536;2023-06-24T05:52:08;102255.50;;;19.85;74.35
59787;BME280;45672;51.612;5.536;2023-06-24T05:54:33;102244.72;;;19.85;72.38
59787;BME280;45672;51.612;5.536;2023-06-24T05:56:59;102259.16;;;19.92;72.07
59787;BME280;45672;51.612;5.536;2023-06-24T05:59:24;102261.50;;;19.95;71.80
59787;BME280;45672;51.612;5.536;2023-06-24T06:01:50;102252.00;;;19.99;70.87
59787;BME280;45672;51.612;5.536;2023-06-24T06:04:15;102250.63;;;20.03;70.16
59787;BME280;45672;51.612;5.536;2023-06-24T06:06:41;102240.94;;;20.09;69.30
59787;BME280;45672;51.612;5.536;2023-06-24T06:09:06;102250.44;;;20.20;69.13
59787;BME280;45672;51.612;5.536;2023-06-24T06:11:31;102246.06;;;20.19;68.62
59787;BME280;45672;51.612;5.536;2023-06-24T06:13:57;102252.88;;;20.29;69.02
59787;BME280;45672;51.612;5.536;2023-06-24T06:16:22;102254.28;;;20.40;66.89
59787;BME280;45672;51.612;5.536;2023-06-24T06:18:48;102245.91;;;20.50;67.41
59787;BME280;45672;51.612;5.536;2023-06-24T06:21:14;102256.88;;;20.63;65.95
59787;BME280;45672;51.612;5.536;2023-06-24T06:23:39;102260.19;;;20.74;65.82
59787;BME280;45672;51.612;5.536;2023-06-24T06:26:04;102269.09;;;20.89;65.99
59787;BME280;45672;51.612;5.536;2023-06-24T06:28:30;102267.22;;;21.05;65.08
59787;BME280;45672;51.612;5.536;2023-06-24T06:30:55;102260.19;;;21.10;62.90
59787;BME280;45672;51.612;5.536;2023-06-24T06:33:22;102264.22;;;21.36;61.81
59787;BME280;45672;51.612;5.536;2023-06-24T06:35:47;102261.94;;;21.55;62.38
59787;BME280;45672;51.612;5.536;2023-06-24T06:38:12;102266.31;;;21.77;60.73
59787;BME280;45672;51.612;5.536;2023-06-24T06:40:38;102271.63;;;22.14;60.86
59787;BME280;45672;51.612;5.536;2023-06-24T06:43:03;102264.31;;;22.43;59.49
59787;BME280;45672;51.612;5.536;2023-06-24T06:45:28;102261.63;;;22.84;56.62
59787;BME280;45672;51.612;5.536;2023-06-24T06:47:54;102277.09;;;23.79;52.67
59787;BME280;45672;51.612;5.536;2023-06-24T06:50:19;102280.59;;;24.73;50.59
59787;BME280;45672;51.612;5.536;2023-06-24T06:52:44;102278.00;;;25.62;47.30
59787;BME280;45672;51.612;5.536;2023-06-24T06:55:10;102280.25;;;26.23;44.60
59787;BME280;45672;51.612;5.536;2023-06-24T06:57:35;102291.72;;;26.87;43.59
59787;BME280;45672;51.612;5.536;2023-06-24T07:00:01;102296.31;;;27.66;41.77
59787;BME280;45672;51.612;5.536;2023-06-24T07:02:26;102301.50;;;28.10;40.56
59787;BME280;45672;51.612;5.536;2023-06-24T07:04:51;102307.44;;;28.42;39.44
59787;BME280;45672;51.612;5.536;2023-06-24T07:07:17;102303.06;;;28.94;39.24
59787;BME280;45672;51.612;5.536;2023-06-24T07:09:42;102310.41;;;29.63;37.38
59787;BME280;45672;51.612;5.536;2023-06-24T07:12:08;102309.03;;;29.94;36.43
59787;BME280;45672;51.612;5.536;2023-06-24T07:14:33;102306.38;;;30.38;35.62
59787;BME280;45672;51.612;5.536;2023-06-24T07:16:58;102312.66;;;31.22;34.46
59787;BME280;45672;51.612;5.536;2023-06-24T07:19:24;102311.38;;;31.57;34.00
59787;BME280;45672;51.612;5.536;2023-06-24T07:21:49;102311.56;;;32.21;33.30
59787;BME280;45672;51.612;5.536;2023-06-24T07:24:14;102310.75;;;32.68;31.67
59787;BME280;45672;51.612;5.536;2023-06-24T07:26:40;102314.41;;;32.94;31.08
59787;BME280;45672;51.612;5.536;2023-06-24T07:29:06;102312.56;;;33.21;30.94
59787;BME280;45672;51.612;5.536;2023-06-24T07:31:32;102321.91;;;33.14;30.47
59787;BME280;45672;51.612;5.536;2023-06-24T07:33:57;102319.97;;;33.15;29.47
59787;BME280;45672;51.612;5.536;2023-06-24T07:36:23;102317.00;;;33.37;29.49
59787;BME280;45672;51.612;5.536;2023-06-24T07:38:48;102323.63;;;33.67;29.09
59787;BME280;45672;51.612;5.536;2023-06-24T07:41:13;102311.19;;;34.16;29.11
59787;BME280;45672;51.612;5.536;2023-06-24T07:43:38;102309.25;;;34.22;27.69
59787;BME280;45672;51.612;5.536;2023-06-24T07:46:04;102312.53;;;34.34;28.88
59787;BME280;45672;51.612;5.536;2023-06-24T07:48:29;102319.53;;;34.86;28.22
59787;BME280;45672;51.612;5.536;2023-06-24T07:50:55;102316.09;;;35.84;25.42
59787;BME280;45672;51.612;5.536;2023-06-24T07:53:20;102309.06;;;35.63;23.95
59787;BME280;45672;51.612;5.536;2023-06-24T07:55:45;102318.84;;;36.14;23.31
59787;BME280;45672;51.612;5.536;2023-06-24T07:58:11;102317.34;;;36.21;23.13
59787;BME280;45672;51.612;5.536;2023-06-24T08:00:36;102314.50;;;36.80;24.22
59787;BME280;45672;51.612;5.536;2023-06-24T08:03:01;102319.38;;;37.26;23.03
59787;BME280;45672;51.612;5.536;2023-06-24T08:05:27;102319.41;;;37.73;22.98
59787;BME280;45672;51.612;5.536;2023-06-24T08:07:53;102316.03;;;38.37;21.39
59787;BME280;45672;51.612;5.536;2023-06-24T08:10:18;102322.59;;;38.69;21.90
59787;BME280;45672;51.612;5.536;2023-06-24T08:12:43;102320.16;;;38.40;20.79
59787;BME280;45672;51.612;5.536;2023-06-24T08:15:09;102314.19;;;38.33;20.51
59787;BME280;45672;51.612;5.536;2023-06-24T08:17:35;102318.25;;;37.93;21.02
59787;BME280;45672;51.612;5.536;2023-06-24T08:20:01;102313.41;;;38.13;21.17
59787;BME280;45672;51.612;5.536;2023-06-24T08:22:27;102313.72;;;38.53;20.68
59787;BME280;45672;51.612;5.536;2023-06-24T08:24:52;102313.22;;;38.65;19.63
59787;BME280;45672;51.612;5.536;2023-06-24T08:27:18;102306.53;;;39.03;20.13
59787;BME280;45672;51.612;5.536;2023-06-24T08:29:43;102302.78;;;39.44;20.49
59787;BME280;45672;51.612;5.536;2023-06-24T08:32:08;102290.56;;;39.85;19.99
59787;BME280;45672;51.612;5.536;2023-06-24T08:34:34;102304.31;;;40.13;19.11
59787;BME280;45672;51.612;5.536;2023-06-24T08:36:59;102303.81;;;40.11;19.03
59787;BME280;45672;51.612;5.536;2023-06-24T08:39:25;102296.09;;;40.08;18.72
59787;BME280;45672;51.612;5.536;2023-06-24T08:41:50;102297.31;;;40.24;17.96
59787;BME280;45672;51.612;5.536;2023-06-24T08:44:16;102301.16;;;40.72;18.06
59787;BME280;45672;51.612;5.536;2023-06-24T08:46:41;102304.47;;;40.74;16.66
59787;BME280;45672;51.612;5.536;2023-06-24T08:49:27;102299.06;;;41.13;18.05
59787;BME280;45672;51.612;5.536;2023-06-24T08:52:00;102290.84;;;40.90;16.79
59787;BME280;45672;51.612;5.536;2023-06-24T08:54:27;102293.50;;;40.95;16.78
59787;BME280;45672;51.612;5.536;2023-06-24T08:56:53;102294.88;;;41.63;16.71
59787;BME280;45672;51.612;5.536;2023-06-24T08:59:18;102299.81;;;42.04;15.59
59787;BME280;45672;51.612;5.536;2023-06-24T09:01:49;102299.47;;;42.06;15.86
59787;BME280;45672;51.612;5.536;2023-06-24T09:04:15;102294.84;;;42.10;15.51
59787;BME280;45672;51.612;5.536;2023-06-24T09:06:40;102292.13;;;42.61;16.06
59787;BME280;45672;51.612;5.536;2023-06-24T09:09:17;102299.63;;;42.91;16.58
59787;BME280;45672;51.612;5.536;2023-06-24T09:11:51;102290.88;;;42.92;16.25
59787;BME280;45672;51.612;5.536;2023-06-24T09:14:17;102297.91;;;43.19;15.07
59787;BME280;45672;51.612;5.536;2023-06-24T09:16:50;102291.09;;;43.08;15.68
59787;BME280;45672;51.612;5.536;2023-06-24T09:19:20;102292.28;;;43.19;15.86
59787;BME280;45672;51.612;5.536;2023-06-24T09:21:46;102293.81;;;43.17;14.25
59787;BME280;45672;51.612;5.536;2023-06-24T09:24:11;102288.22;;;43.63;15.22
59787;BME280;45672;51.612;5.536;2023-06-24T09:26:36;102289.97;;;43.67;14.88
59787;BME280;45672;51.612;5.536;2023-06-24T09:29:03;102275.41;;;43.99;14.65
59787;BME280;45672;51.612;5.536;2023-06-24T09:31:29;102275.28;;;44.20;14.24
59787;BME280;45672;51.612;5.536;2023-06-24T09:33:57;102270.50;;;44.33;14.64
59787;BME280;45672;51.612;5.536;2023-06-24T09:36:23;102263.06;;;44.53;13.36
59787;BME280;45672;51.612;5.536;2023-06-24T09:38:49;102273.31;;;44.73;13.52
59787;BME280;45672;51.612;5.536;2023-06-24T09:41:15;102268.56;;;44.90;13.76
59787;BME280;45672;51.612;5.536;2023-06-24T09:43:42;102269.31;;;44.74;13.56
59787;BME280;45672;51.612;5.536;2023-06-24T09:46:09;102260.69;;;45.40;13.20
59787;BME280;45672;51.612;5.536;2023-06-24T09:48:34;102269.53;;;45.70;12.86
59787;BME280;45672;51.612;5.536;2023-06-24T09:51:04;102258.25;;;45.38;12.88
59787;BME280;45672;51.612;5.536;2023-06-24T09:53:34;102259.53;;;45.73;13.31
59787;BME280;45672;51.612;5.536;2023-06-24T09:56:00;102262.38;;;46.08;12.61
59787;BME280;45672;51.612;5.536;2023-06-24T09:58:28;102255.22;;;46.11;12.42
59787;BME280;45672;51.612;5.536;2023-06-24T10:00:57;102255.91;;;46.40;12.83
59787;BME280;45672;51.612;5.536;2023-06-24T10:03:22;102249.56;;;46.46;12.49
59787;BME280;45672;51.612;5.536;2023-06-24T10:05:48;102261.81;;;46.54;12.60
59787;BME280;45672;51.612;5.536;2023-06-24T10:08:13;102258.41;;;46.45;13.16
59787;BME280;45672;51.612;5.536;2023-06-24T10:10:39;102262.50;;;46.67;12.95
59787;BME280;45672;51.612;5.536;2023-06-24T10:13:04;102260.25;;;46.57;12.51
59787;BME280;45672;51.612;5.536;2023-06-24T10:15:30;102253.41;;;46.38;12.25
59787;BME280;45672;51.612;5.536;2023-06-24T10:17:55;102260.25;;;46.37;12.43
59787;BME280;45672;51.612;5.536;2023-06-24T10:20:24;102262.25;;;45.85;13.36
59787;BME280;45672;51.612;5.536;2023-06-24T10:22:52;102257.97;;;45.75;12.93
59787;BME280;45672;51.612;5.536;2023-06-24T10:25:18;102254.75;;;46.25;13.18
59787;BME280;45672;51.612;5.536;2023-06-24T10:27:44;102257.28;;;46.50;13.25
59787;BME280;45672;51.612;5.536;2023-06-24T10:30:19;102247.28;;;46.52;13.68
59787;BME280;45672;51.612;5.536;2023-06-24T10:32:45;102253.94;;;46.44;12.97
59787;BME280;45672;51.612;5.536;2023-06-24T10:35:23;102248.38;;;46.28;13.42
59787;BME280;45672;51.612;5.536;2023-06-24T10:38:00;102255.22;;;46.11;13.09
59787;BME280;45672;51.612;5.536;2023-06-24T10:40:34;102241.63;;;46.13;12.90
59787;BME280;45672;51.612;5.536;2023-06-24T10:43:00;102238.88;;;46.17;13.47
59787;BME280;45672;51.612;5.536;2023-06-24T10:45:26;102239.72;;;46.01;13.47
59787;BME280;45672;51.612;5.536;2023-06-24T10:47:51;102237.84;;;44.81;13.97
59787;BME280;45672;51.612;5.536;2023-06-24T10:50:22;102242.34;;;42.16;16.30
59787;BME280;45672;51.612;5.536;2023-06-24T10:52:50;102228.19;;;40.04;17.83
59787;BME280;45672;51.612;5.536;2023-06-24T10:55:25;102229.66;;;38.70;19.53
59787;BME280;45672;51.612;5.536;2023-06-24T10:57:53;102217.47;;;37.27;21.70
59787;BME280;45672;51.612;5.536;2023-06-24T11:00:20;102214.44;;;36.52;22.23
59787;BME280;45672;51.612;5.536;2023-06-24T11:02:45;102216.00;;;35.67;22.02
59787;BME280;45672;51.612;5.536;2023-06-24T11:05:11;102214.22;;;35.17;23.35
59787;BME280;45672;51.612;5.536;2023-06-24T11:07:39;102211.66;;;34.92;23.68
59787;BME280;45672;51.612;5.536;2023-06-24T11:10:14;102208.09;;;34.86;23.91
59787;BME280;45672;51.612;5.536;2023-06-24T11:12:41;102214.31;;;36.19;23.21
59787;BME280;45672;51.612;5.536;2023-06-24T11:15:09;102205.50;;;37.59;21.86
59787;BME280;45672;51.612;5.536;2023-06-24T11:17:36;102201.28;;;37.48;20.79
59787;BME280;45672;51.612;5.536;2023-06-24T11:20:04;102205.53;;;36.94;21.90
59787;BME280;45672;51.612;5.536;2023-06-24T11:22:31;102192.91;;;36.25;22.40
59787;BME280;45672;51.612;5.536;2023-06-24T11:24:56;102202.41;;;35.95;22.95
59787;BME280;45672;51.612;5.536;2023-06-24T11:27:29;102197.53;;;35.57;24.50
59787;BME280;45672;51.612;5.536;2023-06-24T11:29:57;102193.38;;;34.96;23.53
59787;BME280;45672;51.612;5.536;2023-06-24T11:35:04;102178.78;;;34.40;25.68
59787;BME280;45672;51.612;5.536;2023-06-24T11:37:31;102181.69;;;34.59;24.97
59787;BME280;45672;51.612;5.536;2023-06-24T11:40:03;102180.16;;;34.43;25.33
59787;BME280;45672;51.612;5.536;2023-06-24T11:42:29;102176.84;;;34.35;25.00
59787;BME280;45672;51.612;5.536;2023-06-24T11:45:02;102174.72;;;34.17;25.27
59787;BME280;45672;51.612;5.536;2023-06-24T11:47:31;102170.97;;;33.87;25.16
59787;BME280;45672;51.612;5.536;2023-06-24T11:49:57;102170.19;;;33.76;25.98
59787;BME280;45672;51.612;5.536;2023-06-24T11:55:01;102168.56;;;33.55;26.68
59787;BME280;45672;51.612;5.536;2023-06-24T12:00:24;102153.94;;;33.13;26.61
59787;BME280;45672;51.612;5.536;2023-06-24T12:02:54;102160.28;;;33.19;26.78
59787;BME280;45672;51.612;5.536;2023-06-24T12:05:40;102164.97;;;33.13;28.02
59787;BME280;45672;51.612;5.536;2023-06-24T12:08:11;102168.56;;;32.72;27.32
59787;BME280;45672;51.612;5.536;2023-06-24T12:10:38;102151.19;;;32.92;27.92
59787;BME280;45672;51.612;5.536;2023-06-24T12:13:04;102158.34;;;33.09;27.40
59787;BME280;45672;51.612;5.536;2023-06-24T12:15:33;102153.66;;;33.20;27.62
59787;BME280;45672;51.612;5.536;2023-06-24T12:18:00;102144.28;;;33.21;26.87
59787;BME280;45672;51.612;5.536;2023-06-24T12:20:26;102150.38;;;33.12;27.93
59787;BME280;45672;51.612;5.536;2023-06-24T12:22:51;102143.19;;;33.01;27.38
59787;BME280;45672;51.612;5.536;2023-06-24T12:25:17;102144.31;;;32.90;27.00
59787;BME280;45672;51.612;5.536;2023-06-24T12:27:43;102147.31;;;32.83;26.52
59787;BME280;45672;51.612;5.536;2023-06-24T12:30:10;102147.31;;;32.93;27.04
59787;BME280;45672;51.612;5.536;2023-06-24T12:32:36;102147.88;;;32.95;27.42
59787;BME280;45672;51.612;5.536;2023-06-24T12:35:01;102144.84;;;32.92;27.43
59787;BME280;45672;51.612;5.536;2023-06-24T12:37:30;102140.44;;;32.75;27.64
59787;BME280;45672;51.612;5.536;2023-06-24T12:39:55;102130.41;;;32.43;28.60
59787;BME280;45672;51.612;5.536;2023-06-24T12:42:23;102128.75;;;32.37;28.79
59787;BME280;45672;51.612;5.536;2023-06-24T12:44:48;102134.59;;;32.61;28.03
59787;BME280;45672;51.612;5.536;2023-06-24T12:47:14;102111.72;;;32.56;28.44
59787;BME280;45672;51.612;5.536;2023-06-24T12:49:39;102135.41;;;32.62;27.79
59787;BME280;45672;51.612;5.536;2023-06-24T12:52:04;102125.28;;;32.98;27.48
59787;BME280;45672;51.612;5.536;2023-06-24T12:54:30;102122.25;;;32.95;27.22
59787;BME280;45672;51.612;5.536;2023-06-24T12:56:55;102118.09;;;32.97;27.85
59787;BME280;45672;51.612;5.536;2023-06-24T12:59:22;102122.50;;;33.09;27.57
59787;BME280;45672;51.612;5.536;2023-06-24T13:01:47;102126.09;;;33.09;27.49
59787;BME280;45672;51.612;5.536;2023-06-24T13:04:13;102121.13;;;32.86;28.00